createdAt,value
2022-10-04T00:02:08.295Z,96.24
2022-10-04T00:05:21.298Z,95.84
2022-10-04T00:08:36.020Z,96.41
2022-10-04T00:11:38.403Z,96.46
2022-10-04T00:14:35.727Z,96.61
2022-10-04T00:17:26.795Z,96.42
2022-10-04T00:20:45.595Z,96.50
2022-10-04T00:24:28.017Z,96.68
2022-10-04T00:28:26.767Z,96.57
2022-10-04T00:31:24.653Z,96.60
2022-10-04T00:34:19.817Z,96.85
2022-10-04T00:37:48.838Z,97.05
2022-10-04T00:40:59.757Z,97.55
2022-10-04T00:44:28.265Z,97.59
2022-10-04T00:47:33.325Z,97.34
2022-10-04T00:50:18.210Z,97.72
2022-10-04T00:53:32.499Z,97.63
2022-10-04T00:56:36.187Z,97.82
2022-10-04T00:59:24.689Z,97.99
2022-10-04T01:02:59.721Z,98.18
2022-10-04T01:06:16.034Z,98.11
2022-10-04T01:09:15.928Z,98.24
2022-10-04T01:12:12.124Z,98.13
2022-10-04T01:15:45.053Z,97.90
2022-10-04T01:18:37.315Z,97.78
2022-10-04T01:22:01.676Z,97.74
2022-10-04T01:25:00.450Z,97.73
2022-10-04T01:27:58.365Z,97.76
2022-10-04T01:30:42.158Z,97.58
2022-10-04T01:33:47.319Z,97.69
2022-10-04T01:36:35.843Z,97.49
2022-10-04T01:39:13.387Z,97.60
2022-10-04T01:42:23.725Z,97.72
2022-10-04T01:46:10.488Z,97.69
2022-10-04T01:48:46.443Z,97.69
2022-10-04T01:51:43.330Z,97.91
2022-10-04T01:55:02.505Z,97.90
2022-10-04T01:57:40.001Z,97.84
2022-10-04T02:00:24.301Z,97.79
2022-10-04T02:03:20.837Z,97.86
2022-10-04T02:06:29.876Z,97.77
2022-10-04T02:09:00.516Z,97.84
2022-10-04T02:11:32.452Z,97.89
2022-10-04T02:14:33.935Z,97.83
2022-10-04T02:17:14.577Z,97.61
2022-10-04T02:20:01.843Z,97.70
2022-10-04T02:22:55.995Z,97.61
2022-10-04T02:25:38.358Z,97.80
2022-10-04T02:28:25.539Z,97.82
2022-10-04T02:31:43.591Z,97.54
2022-10-04T02:34:34.344Z,97.47
2022-10-04T02:37:18.596Z,97.42
2022-10-04T02:39:55.055Z,97.35
2022-10-04T02:42:55.398Z,97.48
2022-10-04T02:45:54.473Z,97.60
2022-10-04T02:48:54.495Z,97.26
2022-10-04T02:51:44.495Z,97.78
2022-10-04T02:54:19.550Z,97.64
2022-10-04T02:57:04.326Z,97.42
2022-10-04T02:59:41.541Z,97.32
2022-10-04T03:02:50.784Z,97.86
2022-10-04T03:05:33.489Z,97.87
2022-10-04T03:08:45.541Z,98.20
2022-10-04T03:11:40.285Z,98.22
2022-10-04T03:14:28.230Z,98.37
2022-10-04T03:17:44.380Z,98.43
2022-10-04T03:20:41.374Z,98.70
2022-10-04T03:23:24.798Z,98.68
2022-10-04T03:26:03.545Z,99.10
2022-10-04T03:29:05.482Z,98.86
2022-10-04T03:31:54.829Z,98.85
2022-10-04T03:34:38.951Z,99.00
2022-10-04T03:37:22.145Z,99.36
2022-10-04T03:40:26.852Z,99.21
2022-10-04T03:43:25.956Z,99.53
2022-10-04T03:46:08.554Z,99.53
2022-10-04T03:48:47.895Z,99.68
2022-10-04T03:51:29.697Z,99.85
2022-10-04T03:58:12.316Z,99.93
2022-10-04T04:01:41.062Z,100.00
2022-10-04T04:05:02.930Z,99.97
2022-10-04T04:08:08.341Z,100.00
2022-10-04T04:11:03.574Z,100.00
2022-10-04T04:14:47.011Z,100.00
2022-10-04T04:18:02.817Z,100.00
2022-10-04T04:20:43.582Z,100.00
2022-10-04T04:23:35.888Z,99.99
2022-10-04T04:26:30.991Z,100.00
2022-10-04T04:29:52.966Z,100.00
2022-10-04T04:32:40.504Z,100.00
2022-10-04T04:35:53.406Z,100.00
2022-10-04T04:39:05.065Z,100.00
2022-10-04T04:42:36.341Z,100.00
2022-10-04T04:45:31.368Z,100.00
2022-10-04T04:48:05.287Z,100.00
2022-10-04T04:51:02.649Z,100.00
2022-10-04T04:53:50.126Z,100.00
2022-10-04T04:56:31.233Z,100.00
2022-10-04T04:59:12.994Z,100.00
2022-10-04T05:02:07.659Z,100.00
2022-10-04T05:04:38.067Z,100.00
2022-10-04T05:07:27.591Z,100.00
2022-10-04T05:11:03.033Z,100.00
2022-10-04T05:13:53.251Z,100.00
2022-10-04T05:17:08.962Z,100.00
2022-10-04T05:19:40.421Z,100.00
2022-10-04T05:22:19.594Z,100.00
2022-10-04T05:25:10.343Z,100.00
2022-10-04T05:28:05.826Z,100.00
2022-10-04T05:31:08.594Z,100.00
2022-10-04T05:34:19.543Z,100.00
2022-10-04T05:37:06.046Z,100.00
2022-10-04T05:39:33.530Z,100.00
2022-10-04T05:42:18.163Z,100.00
2022-10-04T05:44:57.334Z,100.00
2022-10-04T05:47:29.103Z,100.00
2022-10-04T05:50:00.599Z,100.00
2022-10-04T05:52:32.855Z,100.00
2022-10-04T05:55:15.698Z,100.00
2022-10-04T05:57:50.299Z,100.00
2022-10-04T06:00:22.936Z,100.00
2022-10-04T06:03:09.467Z,100.00
2022-10-04T06:06:18.694Z,100.00
2022-10-04T06:09:22.036Z,100.00
2022-10-04T06:12:18.937Z,100.00
2022-10-04T06:15:33.548Z,100.00
2022-10-04T06:18:44.082Z,100.00
2022-10-04T06:22:21.244Z,100.00
2022-10-04T06:25:57.991Z,100.00
2022-10-04T06:29:31.847Z,100.00
2022-10-04T06:33:00.569Z,99.99
2022-10-04T06:36:20.972Z,99.97
2022-10-04T06:39:25.812Z,99.89
2022-10-04T06:42:57.157Z,99.60
2022-10-04T06:46:23.022Z,99.41
2022-10-04T06:49:17.972Z,99.53
2022-10-04T06:52:08.389Z,98.93
2022-10-04T06:55:41.979Z,98.90
2022-10-04T06:58:55.411Z,98.92
2022-10-04T07:01:53.432Z,98.21
2022-10-04T07:05:10.167Z,98.11
2022-10-04T07:08:03.172Z,97.72
2022-10-04T07:11:18.941Z,97.81
2022-10-04T07:14:37.210Z,97.43
2022-10-04T07:17:49.040Z,96.78
2022-10-04T07:21:17.688Z,96.28
2022-10-04T07:24:05.375Z,96.05
2022-10-04T07:26:50.507Z,96.28
2022-10-04T07:29:42.086Z,95.72
2022-10-04T07:33:00.577Z,95.71
2022-10-04T07:35:44.882Z,94.91
2022-10-04T07:38:54.238Z,94.24
2022-10-04T07:41:46.322Z,94.17
2022-10-04T07:44:40.868Z,94.05
2022-10-04T07:47:32.834Z,94.29
2022-10-04T07:51:04.847Z,94.11
2022-10-04T07:54:19.616Z,92.49
2022-10-04T07:57:40.787Z,92.69
2022-10-04T08:00:22.139Z,92.34
2022-10-04T08:04:03.567Z,92.21
2022-10-04T08:07:04.595Z,92.06
2022-10-04T08:09:51.992Z,92.20
2022-10-04T08:12:46.279Z,91.58
2022-10-04T08:16:13.384Z,90.88
2022-10-04T08:22:25.547Z,90.54
2022-10-04T08:25:53.446Z,90.64
2022-10-04T08:29:10.263Z,90.14
2022-10-04T08:33:07.884Z,90.21
2022-10-04T08:37:05.629Z,90.12
2022-10-04T08:41:23.625Z,89.40
2022-10-04T08:45:04.081Z,89.60
2022-10-04T08:52:05.915Z,88.24
2022-10-04T08:55:47.999Z,88.24
2022-10-04T08:58:55.588Z,87.62
2022-10-04T09:02:11.592Z,86.55
2022-10-04T09:13:32.692Z,84.22
2022-10-04T09:17:25.419Z,83.54
2022-10-04T09:21:31.198Z,83.22
2022-10-04T09:25:39.622Z,82.24
2022-10-04T09:29:29.825Z,81.90
2022-10-04T09:33:07.191Z,81.74
2022-10-04T09:36:55.338Z,80.79
2022-10-04T09:40:59.452Z,80.72
2022-10-04T09:44:28.862Z,80.20
2022-10-04T09:48:00.438Z,78.46
2022-10-04T09:52:12.160Z,77.03
2022-10-04T09:56:18.240Z,75.28
2022-10-04T09:59:56.916Z,74.41
2022-10-04T10:03:48.867Z,75.81
2022-10-04T10:08:00.801Z,76.08
2022-10-04T10:12:07.356Z,76.10
2022-10-04T10:16:25.856Z,76.08
2022-10-04T10:20:39.547Z,75.08
2022-10-04T10:24:32.040Z,73.33
2022-10-04T10:28:04.813Z,73.14
2022-10-04T10:31:59.406Z,73.16
2022-10-04T10:35:36.496Z,73.60
2022-10-04T10:38:54.479Z,72.49
2022-10-04T10:42:56.272Z,72.04
2022-10-04T10:46:29.079Z,71.67
2022-10-04T10:58:29.201Z,71.77
2022-10-04T11:06:53.776Z,68.89
2022-10-04T11:10:42.042Z,69.58
2022-10-04T11:14:41.866Z,68.98
2022-10-04T11:17:56.377Z,68.43
2022-10-04T11:22:01.376Z,68.59
2022-10-04T11:25:46.114Z,68.80
2022-10-04T11:29:10.599Z,68.45
2022-10-04T11:33:14.550Z,69.36
2022-10-04T11:36:31.580Z,70.53
2022-10-04T11:40:26.570Z,69.82
2022-10-04T11:43:24.484Z,67.60
2022-10-04T11:46:27.556Z,69.32
2022-10-04T11:49:44.762Z,69.43
2022-10-04T11:52:42.612Z,69.98
2022-10-04T11:56:03.866Z,69.68
2022-10-04T11:59:11.931Z,69.46
2022-10-04T12:02:23.063Z,69.81
2022-10-04T12:05:02.171Z,69.64
2022-10-04T12:08:28.533Z,69.17
2022-10-04T12:11:25.193Z,68.30
2022-10-04T12:15:01.426Z,68.35
2022-10-04T12:17:52.330Z,68.34
2022-10-04T12:21:07.315Z,68.38
2022-10-04T12:24:20.041Z,68.47
2022-10-04T12:27:31.302Z,68.39
2022-10-04T12:30:20.878Z,68.47
2022-10-04T12:33:56.757Z,67.62
2022-10-04T12:37:03.313Z,67.33
2022-10-04T12:40:02.317Z,66.93
2022-10-04T12:43:10.325Z,66.47
2022-10-04T12:46:18.741Z,64.46
2022-10-04T12:49:28.345Z,65.26
2022-10-04T12:52:06.008Z,65.62
2022-10-04T12:55:00.862Z,66.23
2022-10-04T12:58:13.478Z,66.76
2022-10-04T13:01:51.416Z,66.06
2022-10-04T13:06:01.282Z,66.20
2022-10-04T13:10:05.380Z,66.37
2022-10-04T13:13:48.737Z,66.58
2022-10-04T13:20:16.756Z,67.04
2022-10-04T13:23:06.360Z,66.58
2022-10-04T13:26:02.709Z,65.78
2022-10-04T13:29:06.386Z,64.47
2022-10-04T13:31:55.966Z,63.06
2022-10-04T13:35:07.042Z,62.28
2022-10-04T13:38:24.890Z,62.70
2022-10-04T13:41:25.425Z,62.72
2022-10-04T13:48:27.625Z,63.48
2022-10-04T13:51:46.964Z,64.32
2022-10-04T13:55:25.687Z,64.44
2022-10-04T13:58:30.388Z,64.50
2022-10-04T14:01:21.734Z,63.61
2022-10-04T14:03:54.492Z,63.93
2022-10-04T14:06:46.263Z,63.63
2022-10-04T14:09:37.048Z,63.85
2022-10-04T14:12:35.756Z,62.48
2022-10-04T14:15:12.446Z,63.04
2022-10-04T14:18:12.211Z,62.32
2022-10-04T14:21:25.197Z,62.51
2022-10-04T14:24:14.081Z,63.29
2022-10-04T14:27:16.239Z,63.59
2022-10-04T14:30:19.362Z,63.65
2022-10-04T14:33:08.553Z,63.95
2022-10-04T14:36:08.951Z,64.50
2022-10-04T14:38:54.299Z,64.26
2022-10-04T14:41:45.060Z,63.46
2022-10-04T14:44:48.187Z,62.91
2022-10-04T14:47:28.496Z,62.51
2022-10-04T14:50:15.755Z,62.83
2022-10-04T14:53:19.225Z,62.88
2022-10-04T14:56:00.487Z,62.13
2022-10-04T14:58:56.846Z,61.71
2022-10-04T15:01:43.622Z,61.76
2022-10-04T15:04:32.271Z,63.08
2022-10-04T15:07:37.535Z,64.46
2022-10-04T15:10:23.642Z,65.52
2022-10-04T15:13:37.824Z,66.31
2022-10-04T15:16:29.643Z,67.34
2022-10-04T15:19:11.790Z,67.75
2022-10-04T15:22:42.613Z,68.47
2022-10-04T15:25:59.994Z,69.11
2022-10-04T15:29:20.052Z,69.42
2022-10-04T15:32:24.092Z,69.94
2022-10-04T15:35:29.986Z,70.15
2022-10-04T15:39:01.403Z,70.46
2022-10-04T15:42:27.190Z,70.03
2022-10-04T15:45:45.863Z,70.37
2022-10-04T15:49:04.971Z,70.22
2022-10-04T15:52:49.416Z,70.49
2022-10-04T15:55:53.515Z,70.65
2022-10-04T15:58:52.764Z,70.87
2022-10-04T16:01:48.907Z,71.02
2022-10-04T16:04:58.698Z,71.45
2022-10-04T16:07:59.984Z,71.76
2022-10-04T16:11:03.210Z,72.30
2022-10-04T16:14:45.095Z,72.59
2022-10-04T16:17:42.404Z,73.08
2022-10-04T16:20:42.708Z,73.29
2022-10-04T16:23:48.411Z,73.95
2022-10-04T16:27:33.337Z,74.00
2022-10-04T16:30:30.119Z,74.52
2022-10-04T16:33:56.564Z,74.97
2022-10-04T16:37:11.533Z,75.57
2022-10-04T16:40:57.822Z,76.05
2022-10-04T16:44:39.939Z,76.93
2022-10-04T16:48:26.839Z,77.86
2022-10-04T16:52:13.561Z,78.16
2022-10-04T16:55:43.990Z,78.74
2022-10-04T16:59:32.731Z,79.56
2022-10-04T17:02:28.239Z,80.08
2022-10-04T17:06:12.950Z,80.67
2022-10-04T17:10:05.747Z,81.00
2022-10-04T17:13:23.906Z,81.33
2022-10-04T17:17:04.771Z,81.65
2022-10-04T17:19:54.395Z,82.21
2022-10-04T17:23:06.890Z,82.46
2022-10-04T17:26:04.489Z,82.80
2022-10-04T17:30:03.469Z,83.29
2022-10-04T17:33:15.601Z,83.49
2022-10-04T17:36:14.020Z,83.85
2022-10-04T17:39:27.906Z,84.08
2022-10-04T17:42:31.886Z,84.65
2022-10-04T17:45:59.386Z,84.69
2022-10-04T17:49:10.410Z,84.73
2022-10-04T17:52:09.363Z,84.74
2022-10-04T17:55:01.678Z,84.94
2022-10-04T17:58:34.924Z,85.07
2022-10-04T18:01:43.314Z,85.23
2022-10-04T18:05:05.902Z,85.34
2022-10-04T18:08:09.000Z,85.47
2022-10-04T18:12:05.539Z,85.15
2022-10-04T18:15:16.424Z,85.40
2022-10-04T18:18:10.131Z,85.39
2022-10-04T18:21:12.804Z,85.47
2022-10-04T18:24:31.902Z,85.12
2022-10-04T18:27:55.570Z,84.81
2022-10-04T18:31:24.426Z,84.87
2022-10-04T18:34:27.465Z,84.60
2022-10-04T18:37:18.710Z,84.89
2022-10-04T18:40:00.121Z,84.91
2022-10-04T18:42:50.491Z,85.14
2022-10-04T18:46:25.434Z,85.09
2022-10-04T18:49:44.651Z,85.50
2022-10-04T18:53:13.506Z,85.90
2022-10-04T18:57:06.585Z,85.83
2022-10-04T19:00:19.476Z,85.64
2022-10-04T19:04:04.959Z,85.81
2022-10-04T19:07:19.301Z,85.46
2022-10-04T19:10:19.088Z,85.70
2022-10-04T19:14:08.162Z,85.94
2022-10-04T19:18:02.141Z,86.00
2022-10-04T19:21:43.029Z,85.90
2022-10-04T19:25:22.793Z,86.08
2022-10-04T19:28:21.647Z,85.96
2022-10-04T19:31:29.069Z,85.89
2022-10-04T19:35:26.102Z,86.07
2022-10-04T19:39:28.444Z,85.96
2022-10-04T19:43:40.897Z,86.07
2022-10-04T19:47:04.275Z,86.30
2022-10-04T19:50:24.847Z,86.52
2022-10-04T19:53:48.155Z,86.62
2022-10-04T19:56:56.164Z,86.60
2022-10-04T20:00:44.527Z,86.78
2022-10-04T20:04:06.754Z,87.27
2022-10-04T20:07:48.792Z,87.21
2022-10-04T20:11:20.176Z,87.49
2022-10-04T20:14:20.955Z,88.00
2022-10-04T20:18:07.510Z,87.94
2022-10-04T20:21:32.929Z,88.11
2022-10-04T20:25:36.846Z,88.07
2022-10-04T20:29:23.658Z,88.10
2022-10-04T20:33:03.435Z,88.16
2022-10-04T20:37:10.462Z,88.08
2022-10-04T20:40:24.918Z,88.29
2022-10-04T20:43:18.882Z,88.38
2022-10-04T20:46:41.833Z,88.27
2022-10-04T20:50:06.550Z,88.47
2022-10-04T20:53:26.378Z,88.44
2022-10-04T20:56:50.436Z,88.40
2022-10-04T21:00:07.682Z,88.37
2022-10-04T21:03:44.056Z,87.93
2022-10-04T21:07:24.780Z,88.11
2022-10-04T21:15:59.487Z,87.80
2022-10-04T21:20:23.588Z,87.72
2022-10-04T21:42:12.679Z,87.11
2022-10-04T21:58:51.622Z,87.52
2022-10-04T22:03:06.363Z,87.54
2022-10-04T22:07:59.773Z,87.75
2022-10-04T22:20:19.625Z,87.82
2022-10-04T22:23:51.048Z,88.09
2022-10-04T22:27:33.568Z,88.25
2022-10-04T22:30:56.176Z,88.24
2022-10-04T22:34:36.617Z,88.04
2022-10-04T22:38:29.180Z,88.23
2022-10-04T22:41:45.273Z,87.74
2022-10-04T22:44:41.456Z,87.84
2022-10-04T22:47:55.489Z,87.67
2022-10-04T22:51:11.066Z,87.53
2022-10-04T22:54:45.811Z,87.46
2022-10-04T22:58:33.760Z,87.43
2022-10-04T23:02:20.060Z,87.54
2022-10-04T23:05:58.456Z,87.68
2022-10-04T23:09:59.344Z,87.78
2022-10-04T23:14:32.283Z,87.55
2022-10-04T23:17:58.768Z,88.03
2022-10-04T23:22:05.163Z,88.04
2022-10-04T23:25:48.225Z,88.17
2022-10-04T23:30:21.873Z,88.23
2022-10-04T23:43:24.839Z,88.84
2022-10-04T23:47:08.348Z,89.15
2022-10-04T23:51:25.456Z,89.27
2022-10-04T23:54:59.785Z,89.22
2022-10-04T23:59:32.417Z,89.50
